^^
Station Historical Data
Daily Summary for February 6, 2018 Units:  Metric    English   Both
« Previous Day
Next Day »
Daily Weekly Monthly Yearly Custom
  High: Low: Average:
Temperature: -17.8 °C 20.6 °C 24.6 °C
Dew Point: -17.8 °C 3.6 °C 11.9 °C
Humidity: Humidity% 22% 50%
Wind Speed: 0km/h 0km/h 6.9km/h
Wind Gust: 0km/h - -
Wind- - South
Pressure: 0 hPa 1002.9 hPa -
Precipitation: 12.7 mm    
Historical Graphs
 
 
Tabular Data for February 6, 2018
Time Temperature Dew Point Pressure Wind Wind Speed Wind Gust Humidity Rainfall Rate (Hourly) solar Conditions
-17.8 °C -17.8 °C 0 hPa Calm     Humidity% 0 mm SolarRadiationWatts/m^2 W/m2 Conditions
00:08 28.5 °C 7.7 °C 1003.9 hPa SSW 16.3 km/h 19.3 km/h 27% 0 mm 0.0 W/m2
00:13 28.5 °C 7.7 °C 1004.3 hPa SSW 11.1 km/h 16.1 km/h 27% 0 mm 0.0 W/m2
00:23 28.3 °C 7.5 °C 1003.9 hPa SSW 7.9 km/h 8 km/h 27% 0 mm 0.0 W/m2
00:28 28.3 °C 7.5 °C 1004.3 hPa SSW 11.1 km/h 14.5 km/h 27% 0 mm 0.0 W/m2
00:34 28.2 °C 7.4 °C 1003.9 hPa SSW 13 km/h 14.5 km/h 27% 0 mm 0.0 W/m2
00:38 28.2 °C 6.9 °C 1004.3 hPa SSW 11.1 km/h 11.3 km/h 26% 0 mm 0.0 W/m2
00:49 28.2 °C 6.9 °C 1004.3 hPa SSW 9.7 km/h 12.9 km/h 26% 0 mm 0.0 W/m2
01:14 27.9 °C 6.1 °C 1004.3 hPa SSW 11.1 km/h 16.1 km/h 25% 0 mm 0.0 W/m2
01:29 27.8 °C 5.4 °C 1003.9 hPa SSW 16.3 km/h 19.3 km/h 24% 0 mm 0.0 W/m2
01:44 27.7 °C 4.7 °C 1003.9 hPa SSW 9.7 km/h 12.9 km/h 23% 0 mm 0.0 W/m2
01:54 27.7 °C 5.3 °C 1003.9 hPa SSW 11.1 km/h 12.9 km/h 24% 0 mm 0.0 W/m2
01:59 27.7 °C 5.3 °C 1003.9 hPa SSW 9.7 km/h 14.5 km/h 24% 0 mm 0.0 W/m2
02:05 27.8 °C 5.4 °C 1003.9 hPa SSW 6.4 km/h 11.3 km/h 24% 0 mm 0.0 W/m2
02:10 27.8 °C 5.4 °C 1003.9 hPa SSW 9.7 km/h 11.3 km/h 24% 0 mm 0.0 W/m2
02:19 28.1 °C 5.6 °C 1003.6 hPa SSW 13 km/h 16.1 km/h 24% 0 mm 0.0 W/m2
02:24 28.1 °C 5.6 °C 1003.6 hPa SSW 16.3 km/h 17.7 km/h 24% 0 mm 0.0 W/m2
02:30 28.1 °C 5.6 °C 1003.6 hPa SSW 13 km/h 17.7 km/h 24% 0 mm 0.0 W/m2
02:35 27.9 °C 5.5 °C 1003.6 hPa SW 17.7 km/h 20.9 km/h 24% 0 mm 0.0 W/m2
02:40 27.9 °C 5.5 °C 1003.6 hPa SW 16.3 km/h 20.9 km/h 24% 0 mm 0.0 W/m2
02:45 27.8 °C 4.8 °C 1003.3 hPa SW 14.3 km/h 17.7 km/h 23% 0 mm 0.0 W/m2
02:50 27.7 °C 4.7 °C 1003.3 hPa SW 13 km/h 19.3 km/h 23% 0 mm 0.0 W/m2
02:55 27.7 °C 4 °C 1003.3 hPa SSW 16.3 km/h 19.3 km/h 22% 0 mm 0.0 W/m2
03:00 27.6 °C 4 °C 1003.3 hPa SSW 13 km/h 19.3 km/h 22% 0 mm 0.0 W/m2
03:05 27.4 °C 3.8 °C 1003.3 hPa SSW 17.7 km/h 17.7 km/h 22% 0 mm 0.0 W/m2
03:11 27.3 °C 3.7 °C 1002.9 hPa SSW 17.7 km/h 20.9 km/h 22% 0 mm 0.0 W/m2
03:20 27.2 °C 3.6 °C 1003.6 hPa SW 14.3 km/h 19.3 km/h 22% 0 mm 0.0 W/m2
03:25 27.2 °C 4.3 °C 1003.6 hPa SW 14.3 km/h 19.3 km/h 23% 0 mm 0.0 W/m2
03:30 26.9 °C 4 °C 1003.6 hPa SW 13 km/h 14.5 km/h 23% 0 mm 0.0 W/m2
03:40 26.7 °C 5 °C 1003.6 hPa SW 13 km/h 17.7 km/h 25% 0 mm 0.0 W/m2
03:45 26.6 °C 5 °C 1003.6 hPa SW 9.7 km/h 19.3 km/h 25% 0 mm 0.0 W/m2
03:50 26.5 °C 4.9 °C 1003.6 hPa SW 11.1 km/h 17.7 km/h 25% 0 mm 0.0 W/m2
04:00 26.4 °C 5.3 °C 1003.6 hPa SW 14.3 km/h 19.3 km/h 26% 0 mm 0.0 W/m2
04:05 26.3 °C 5.3 °C 1003.6 hPa SW 13 km/h 16.1 km/h 26% 0 mm 0.0 W/m2
04:10 26.3 °C 5.3 °C 1003.3 hPa SW 16.3 km/h 17.7 km/h 26% 0 mm 0.0 W/m2
04:16 26.3 °C 5.3 °C 1002.9 hPa SW 16.3 km/h 20.9 km/h 26% 0 mm 0.0 W/m2
04:25 26.4 °C 4.8 °C 1003.3 hPa SW 13 km/h 16.1 km/h 25% 0 mm 0.0 W/m2
04:30 26.5 °C 4.9 °C 1003.6 hPa SW 11.1 km/h 14.5 km/h 25% 0 mm 0.0 W/m2
04:35 26.7 °C 4.5 °C 1003.6 hPa SW 9.7 km/h 17.7 km/h 24% 0 mm 0.0 W/m2
04:40 26.7 °C 4.5 °C 1003.6 hPa SW 14.3 km/h 17.7 km/h 24% 0 mm 0.0 W/m2
04:45 26.7 °C 4.5 °C 1003.6 hPa SW 13 km/h 17.7 km/h 24% 0 mm 0.0 W/m2
04:51 26.5 °C 4.9 °C 1003.6 hPa SW 11.1 km/h 19.3 km/h 25% 0 mm 0.0 W/m2
04:55 26.2 °C 5.2 °C 1003.6 hPa SW 14.3 km/h 19.3 km/h 26% 0 mm 0.0 W/m2
05:06 25.9 °C 5.5 °C 1003.9 hPa SW 6.4 km/h 11.3 km/h 27% 0 mm 0.0 W/m2
05:16 25.8 °C 5.4 °C 1004.3 hPa SW 9.7 km/h 12.9 km/h 27% 0 mm 0.0 W/m2
05:21 25.8 °C 5.4 °C 1004.3 hPa SW 9.7 km/h 16.1 km/h 27% 0 mm 0.0 W/m2
05:26 25.8 °C 6.4 °C 1004.3 hPa SW 9.7 km/h 14.5 km/h 29% 0 mm 0.0 W/m2
05:36 25.6 °C 5.2 °C 1004.3 hPa SW 9.7 km/h 16.1 km/h 27% 0 mm 0.0 W/m2
05:41 25.6 °C 5.7 °C 1003.9 hPa SW 7.9 km/h 14.5 km/h 28% 0 mm 0.0 W/m2
05:46 25.6 °C 5.7 °C 1003.9 hPa SW 11.1 km/h 16.1 km/h 28% 0 mm 0.0 W/m2
05:51 25.6 °C 5.7 °C 1003.9 hPa SSW 14.3 km/h 20.9 km/h 28% 0 mm 0.0 W/m2
06:01 25.6 °C 5.7 °C 1004.3 hPa SSW 11.1 km/h 11.3 km/h 28% 0 mm 0.0 W/m2
06:06 25.5 °C 6.2 °C 1004.6 hPa SSW 4.7 km/h 14.5 km/h 29% 0 mm 0.0 W/m2
06:11 25.4 °C 6.1 °C 1004.6 hPa SSW 14.3 km/h 16.1 km/h 29% 0 mm 0.0 W/m2
06:16 25.3 °C 6 °C 1004.6 hPa SW 14.3 km/h 16.1 km/h 29% 0 mm 0.0 W/m2
06:21 25.2 °C 6.4 °C 1004.6 hPa SW 16.3 km/h 22.5 km/h 30% 0 mm 0.0 W/m2
06:31 25.1 °C 6.3 °C 1004.6 hPa SW 14.3 km/h 17.7 km/h 30% 0 mm 0.0 W/m2
06:41 25.1 °C 5.3 °C 1005 hPa SW 13 km/h 14.5 km/h 28% 0 mm 0.0 W/m2
06:46 25.1 °C 5.3 °C 1005.3 hPa SW 6.4 km/h 14.5 km/h 28% 0 mm 0.0 W/m2
06:51 25.1 °C 5.3 °C 1005.6 hPa SSE 11.1 km/h 12.9 km/h 28% 0 mm 0.0 W/m2
06:58 25.1 °C 5.8 °C 1005.6 hPa South 7.9 km/h 11.3 km/h 29% 0 mm 0.0 W/m2
07:03 25.1 °C 6.3 °C 1005.6 hPa South 6.4 km/h 8 km/h 30% 0 mm 0.0 W/m2
07:12 24.7 °C 10.2 °C 1006 hPa South 7.9 km/h 9.7 km/h 40% 0 mm 9.0 W/m2
07:22 23.7 °C 12 °C 1006 hPa South 4.7 km/h 8 km/h 48% 0 mm 21.0 W/m2
07:27 23.5 °C 12.2 °C 1006 hPa South 3.2 km/h 6.4 km/h 49% 0 mm 28.0 W/m2
07:33 23.4 °C 12.7 °C 1006 hPa South 6.4 km/h 8 km/h 51% 0 mm 39.0 W/m2
07:38 23.4 °C 13.8 °C 1006 hPa South 4.7 km/h 6.4 km/h 55% 0 mm 39.0 W/m2
07:46 23.3 °C 12 °C 1006.3 hPa South 7.9 km/h 11.3 km/h 49% 0 mm 39.0 W/m2
07:52 23.3 °C 11 °C 1006.3 hPa Calm   1.6 km/h 46% 0 mm 56.0 W/m2
07:56 23.3 °C 11.7 °C 1006.3 hPa Calm     48% 0 mm 65.0 W/m2
08:03 23.3 °C 12.3 °C 1006 hPa Calm     50% 0 mm 42.0 W/m2
08:36 23 °C 14.3 °C 1006.7 hPa Calm     58% 0.51 mm 21.0 W/m2
08:48 22.2 °C 14.1 °C 1007 hPa Calm     60% 0.51 mm 21.0 W/m2
09:04 22.1 °C 15.7 °C 1007 hPa Calm     67% 0.76 mm 32.0 W/m2
09:18 22.2 °C 18.2 °C 1007 hPa South 6.4 km/h 8 km/h 78% 1.52 mm 42.0 W/m2
09:26 21.9 °C 17.7 °C 1007.3 hPa Calm     77% 2.03 mm 58.0 W/m2
09:33 22.2 °C 17.1 °C 1007.3 hPa Calm     73% 2.03 mm 77.0 W/m2
09:44 22.6 °C 17.5 °C 1007.3 hPa SSE 9.7 km/h 12.9 km/h 73% 1.52 mm 70.0 W/m2
09:57 22.3 °C 17 °C 1007.3 hPa SSE 16.3 km/h 16.3 km/h 72% 2.29 mm 98.0 W/m2
10:08 22.3 °C 17 °C 1007 hPa ESE 16.3 km/h 19.3 km/h 72% 1.52 mm 160.0 W/m2
10:17 22.6 °C 17.3 °C 1007.3 hPa ESE 13 km/h 14.5 km/h 72% 1.27 mm 83.0 W/m2
10:24 22.7 °C 17.4 °C 1007.3 hPa ESE 19.5 km/h 19.5 km/h 72% 0.76 mm 49.0 W/m2
10:29 22.5 °C 17.2 °C 1007.3 hPa East 22.7 km/h 22.7 km/h 72% 0.76 mm 49.0 W/m2
10:34 22.2 °C 17.1 °C 1007.3 hPa East 17.7 km/h 22.5 km/h 73% 0.76 mm 76.0 W/m2
10:50 21.9 °C 17.3 °C 1007.7 hPa East 13 km/h 22.5 km/h 75% 0.51 mm 100.0 W/m2
11:06 21.9 °C 17.3 °C 1008 hPa East 6.4 km/h 20.9 km/h 75% 0 mm 95.0 W/m2
11:15 22.2 °C 18 °C 1008 hPa East 9.7 km/h 12.9 km/h 77% 0 mm 84.0 W/m2
11:30 22.2 °C 17.6 °C 1008 hPa East 16.3 km/h 17.7 km/h 75% 0.51 mm 51.0 W/m2
11:45 21.8 °C 17.8 °C 1008.4 hPa Calm     78% 0.51 mm 26.0 W/m2
11:55 21.1 °C 17.9 °C 1008.4 hPa Calm     82% 1.27 mm 37.0 W/m2
12:06 20.7 °C 17.9 °C 1008.4 hPa Calm     84% 2.29 mm 39.0 W/m2
12:21 20.6 °C 18 °C 1008.4 hPa Calm     85% 3.3 mm 49.0 W/m2
12:37 20.7 °C 18.5 °C 1008 hPa Calm     87% 4.06 mm 40.0 W/m2
12:57 20.8 °C 18.4 °C 1007.7 hPa East 11.1 km/h 19.3 km/h 86% 4.32 mm 54.0 W/m2
13:13 20.8 °C 18.4 °C 1008 hPa Calm     86% 3.56 mm 40.0 W/m2
13:27 20.7 °C 18.1 °C 1007.7 hPa Calm     85% 4.06 mm 74.0 W/m2
13:44 21.1 °C 18.3 °C 1007.3 hPa Calm     84% 2.79 mm 67.0 W/m2
13:53 21.4 °C 18.2 °C 1007 hPa Calm     82% 2.03 mm 67.0 W/m2
14:08 21.4 °C 18 °C 1006.7 hPa Calm     81% 1.52 mm 51.0 W/m2
14:29 21.3 °C 17.9 °C 1006.3 hPa Calm     81% 0.76 mm 49.0 W/m2
14:38 21.2 °C 18.4 °C 1005.6 hPa Calm     84% 2.29 mm 151.0 W/m2
14:59 21.5 °C 18.7 °C 1006 hPa Calm     84% 2.29 mm 174.0 W/m2
15:15 22.4 °C 19.2 °C 1005.6 hPa Calm     82% 2.03 mm 200.0 W/m2
15:25 22.8 °C 19.6 °C 1006.3 hPa Calm     82% 1.27 mm 190.0 W/m2
15:40 23.2 °C 19.4 °C 1006.3 hPa Calm     79% 0 mm 151.0 W/m2
15:55 23.3 °C 19 °C 1006 hPa Calm     77% 0 mm 128.0 W/m2
16:11 23.5 °C 19.6 °C 1006.3 hPa Calm     79% 0 mm 69.0 W/m2
16:17 23.5 °C 19.6 °C 1006.3 hPa Calm     79% 0 mm 69.0 W/m2
16:26 23.3 °C 19.9 °C 1005.6 hPa Calm     81% 0.51 mm 137.0 W/m2
16:41 24.2 °C 20.3 °C 1005.6 hPa Calm     79% 0.51 mm 345.0 W/m2
16:56 24.8 °C 18.3 °C 1005 hPa East 1.4 km/h 6.4 km/h 67% 0.51 mm 288.0 W/m2
17:17 26.2 °C 18.1 °C 1005 hPa East 4.7 km/h 4.8 km/h 61% 0.51 mm 311.0 W/m2
17:25 26.6 °C 17.7 °C 1004.6 hPa Calm   8 km/h 58% 0.51 mm 207.0 W/m2
17:32 26.7 °C 17.2 °C 1005 hPa Calm     56% 0 mm 360.0 W/m2
17:42 27.2 °C 17.1 °C 1005 hPa Calm     54% 0 mm 169.0 W/m2
18:03 26.8 °C 17 °C 1005 hPa Calm     55% 0 mm 95.0 W/m2
18:13 26.7 °C 16.9 °C 1005 hPa Calm     55% 0 mm 111.0 W/m2
18:24 26.9 °C 17.4 °C 1005.6 hPa Calm     56% 0 mm 283.0 W/m2
18:44 26.9 °C 16.2 °C 1005.6 hPa Calm     52% 0 mm 107.0 W/m2
18:54 26.8 °C 18.1 °C 1005.3 hPa Calm     59% 0 mm 44.0 W/m2
19:10 26.6 °C 18.7 °C 1005.6 hPa Calm     62% 0 mm 35.0 W/m2
19:20 26.1 °C 18.8 °C 1005.6 hPa Calm     64% 0 mm 14.0 W/m2
19:42 25.7 °C 19.6 °C 1006 hPa Calm     69% 0 mm 5.0 W/m2
19:58 25.2 °C 19.6 °C 1006.3 hPa Calm     71% 0 mm 0.0 W/m2
20:12 24.6 °C 19.4 °C 1006.3 hPa Calm     73% 0 mm 0.0 W/m2
20:21 24.2 °C 19.5 °C 1007 hPa Calm     75% 0 mm 0.0 W/m2
20:36 23.9 °C 19.4 °C 1007 hPa Calm     76% 0 mm 0.0 W/m2
20:42 23.9 °C 19.4 °C 1007 hPa Calm     76% 0 mm 0.0 W/m2
20:59 24.2 °C 18.6 °C 1007 hPa Calm     71% 0 mm 0.0 W/m2
21:11 24.2 °C 18.4 °C 1007.3 hPa Calm     70% 0 mm 0.0 W/m2
21:20 24.4 °C 18.3 °C 1007.3 hPa Calm     69% 0 mm 0.0 W/m2
21:30 24.4 °C 18.6 °C 1007.3 hPa Calm     70% 0 mm 0.0 W/m2
21:38 24.3 °C 18.7 °C 1007.3 hPa Calm     71% 0 mm 0.0 W/m2
21:48 24.2 °C 19.3 °C 1007.3 hPa Calm     74% 0 mm 0.0 W/m2
21:58 24 °C 19.1 °C 1007.3 hPa Calm     74% 0 mm 0.0 W/m2
22:19 23.9 °C 18.5 °C 1007.3 hPa Calm     72% 0 mm 0.0 W/m2
22:32 23.8 °C 18.9 °C 1007.3 hPa Calm     74% 0 mm 0.0 W/m2
22:40 23.6 °C 18.9 °C 1007.7 hPa Calm     75% 0 mm 0.0 W/m2
Canyon Roadhouse, Fishriver Canyon, Namibia
Compliments of Weather Underground - 2.25 mb